Time;durP1;ratioP1;P1;durP2;ratioP2;P2;SDS_P1;SDS_P2;PMS_P1;PMS_P2;Temp;Humidity;BMP_temperature;BMP_pressure;BME280_temperature;BME280_humidity;BME280_pressure;Samples;Min_cycle;Max_cycle;Signal;HPM_P1;HPM_P2
2021/04/07 00:00:24;;;;;;;;;;;1.10;99.90;;;;;;4990502;28;20337;-85
2021/04/07 00:02:50;;;;;;;;;;;1.10;99.90;;;;;;4990642;28;19922;-86
2021/04/07 00:05:27;;;;;;;;;;;1.10;99.90;;;;;;5007398;28;19925;-86
2021/04/07 00:07:54;;;;;;;;;;;1.10;99.90;;;;;;5006940;28;19914;-84
2021/04/07 00:10:30;;;;;;;;;;;1.00;99.90;;;;;;5007196;28;19920;-85
2021/04/07 00:13:03;;;;;;;;;;;1.00;99.90;;;;;;5008381;28;19940;-86
2021/04/07 00:15:32;;;;;;;;;;;1.00;99.90;;;;;;4991310;28;19964;-85
2021/04/07 00:18:05;;;;;;;;;;;1.00;99.90;;;;;;4990894;28;19952;-86
2021/04/07 00:20:44;;;;;;;;;;;;;;;;;;;;;
2021/04/07 00:23:10;;;;;;;;;;;0.90;99.90;;;;;;5007628;28;19977;-85
2021/04/07 00:25:38;;;;;;;;;;;0.80;99.90;;;;;;5007536;28;19924;-85
2021/04/07 00:28:20;;;;;;;;;;;0.80;99.90;;;;;;5007324;28;19910;-85
2021/04/07 00:30:55;;;;;;;;;;;0.70;99.90;;;;;;4990260;28;20770;-85
2021/04/07 00:33:32;;;;;;;;;;;0.70;99.90;;;;;;5007378;28;19921;-84
2021/04/07 00:36:21;;;;;;;;;;;0.70;99.90;;;;;;5007674;28;20009;-84
2021/04/07 00:38:49;;;;;;;;;;;0.70;99.90;;;;;;5004962;28;19922;-85
2021/04/07 00:41:14;;;;;;;;;;;0.70;99.90;;;;;;5007073;28;19946;-85
2021/04/07 00:43:45;;;;;;;;;;;0.60;99.90;;;;;;5006852;28;20278;-84
2021/04/07 00:46:11;;;;;;;;;;;0.60;99.90;;;;;;4990037;28;19937;-83
2021/04/07 00:51:36;;;;;;;;;;;0.60;99.90;;;;;;5006681;28;19921;-85
2021/04/07 00:54:09;;;;;;;;;;;0.60;99.90;;;;;;5006982;28;19921;-85
2021/04/07 00:56:58;;;;;;;;;;;0.60;99.90;;;;;;5006615;28;19913;-85
2021/04/07 01:00:00;;;;;;;;;;;0.60;99.90;;;;;;5005848;28;19928;-85
2021/04/07 01:02:26;;;;;;;;;;;0.60;99.90;;;;;;4995415;28;19931;-85
2021/04/07 01:04:54;;;;;;;;;;;0.60;99.90;;;;;;4989847;28;19921;-85
2021/04/07 01:07:46;;;;;;;;;;;0.60;99.90;;;;;;5006246;28;19913;-85
2021/04/07 01:10:15;;;;;;;;;;;0.60;99.90;;;;;;4981278;28;19937;-85
2021/04/07 01:13:05;;;;;;;;;;;0.60;99.90;;;;;;5002466;28;19914;-85
2021/04/07 01:15:31;;;;;;;;;;;0.60;99.90;;;;;;4990420;28;19922;-85
2021/04/07 01:18:10;;;;;;;;;;;0.70;99.90;;;;;;4975609;28;19937;-86
2021/04/07 01:21:00;;;;;;;;;;;0.70;99.90;;;;;;4986073;28;19918;-85
2021/04/07 01:23:33;;;;;;;;;;;0.80;99.90;;;;;;5006924;28;19913;-85
2021/04/07 01:26:15;;;;;;;;;;;0.80;99.90;;;;;;4992798;28;19914;-84
2021/04/07 01:29:03;;;;;;;;;;;0.80;99.90;;;;;;5010198;28;19925;-86
2021/04/07 01:34:29;;;;;;;;;;;0.80;99.90;;;;;;4997221;28;19914;-85
2021/04/07 01:37:21;;;;;;;;;;;0.80;99.90;;;;;;4989876;28;19956;-83
2021/04/07 01:39:58;;;;;;;;;;;0.80;99.90;;;;;;5006071;28;19910;-84
2021/04/07 01:42:43;;;;;;;;;;;;;;;;;;;;;
2021/04/07 01:50:53;;;;;;;;;;;0.90;99.90;;;;;;5001920;28;19914;-85
2021/04/07 01:53:55;;;;;;;;;;;;;;;;;;;;;
2021/04/07 01:56:15;;;;;;;;;;;0.90;99.90;;;;;;5001407;28;20015;-84
2021/04/07 01:58:58;;;;;;;;;;;0.80;99.90;;;;;;5006898;28;20016;-85
2021/04/07 02:01:43;;;;;;;;;;;0.80;99.90;;;;;;4997597;23;19926;-84
2021/04/07 02:04:09;;;;;;;;;;;0.80;99.90;;;;;;4969770;28;19914;-82
2021/04/07 02:06:42;;;;;;;;;;;0.90;99.90;;;;;;4989267;28;19998;-83
2021/04/07 02:09:27;;;;;;;;;;;0.90;99.90;;;;;;4974657;28;19915;-82
2021/04/07 02:12:13;;;;;;;;;;;0.90;99.90;;;;;;4963448;28;19925;-82
2021/04/07 02:14:44;;;;;;;;;;;1.00;99.90;;;;;;4964438;28;19946;-80
2021/04/07 02:17:12;;;;;;;;;;;1.00;99.90;;;;;;4987507;28;19914;-81
2021/04/07 02:19:40;;;;;;;;;;;1.00;99.90;;;;;;4984739;28;19922;-80
2021/04/07 02:22:23;;;;;;;;;;;1.00;99.90;;;;;;4971949;28;19911;-80
2021/04/07 02:27:47;;;;;;;;;;;;;;;;;;;;;
2021/04/07 02:30:22;;;;;;;;;;;1.00;99.90;;;;;;4986578;28;19968;-79
2021/04/07 02:32:47;;;;;;;;;;;1.00;99.90;;;;;;4984553;28;20293;-83
2021/04/07 02:35:13;;;;;;;;;;;1.00;99.90;;;;;;4971467;28;19958;-81
2021/04/07 02:37:39;;;;;;;;;;;0.90;99.90;;;;;;4968845;28;19914;-81
2021/04/07 02:40:05;;;;;;;;;;;0.90;99.90;;;;;;4981917;28;19921;-83
2021/04/07 02:42:30;;;;;;;;;;;0.90;99.90;;;;;;4964033;28;19915;-82
2021/04/07 02:44:56;;;;;;;;;;;0.90;99.90;;;;;;4973928;28;20009;-78
2021/04/07 02:47:24;;;;;;;;;;;0.90;99.90;;;;;;4968291;28;20432;-82
2021/04/07 02:49:49;;;;;;;;;;;0.90;99.90;;;;;;4962346;28;19914;-81
2021/04/07 02:52:15;;;;;;;;;;;0.90;99.90;;;;;;4978284;28;19910;-82
2021/04/07 02:54:40;;;;;;;;;;;1.00;99.90;;;;;;4961361;28;19917;-80
2021/04/07 02:57:06;;;;;;;;;;;1.00;99.90;;;;;;4960458;28;19914;-82
2021/04/07 02:59:32;;;;;;;;;;;1.00;99.90;;;;;;4961842;28;19914;-82
2021/04/07 03:01:58;;;;;;;;;;;1.00;99.90;;;;;;4962206;28;19942;-82
2021/04/07 03:04:36;;;;;;;;;;;1.00;99.90;;;;;;4961470;28;19915;-83
2021/04/07 03:07:04;;;;;;;;;;;1.00;99.90;;;;;;4967521;28;20267;-82
2021/04/07 03:09:30;;;;;;;;;;;1.00;99.90;;;;;;4973393;28;19965;-82
2021/04/07 03:12:39;;;;;;;;;;;1.00;99.90;;;;;;4964301;28;20326;-81
2021/04/07 03:15:16;;;;;;;;;;;1.00;99.90;;;;;;4964560;28;20057;-82
2021/04/07 03:17:44;;;;;;;;;;;1.00;99.90;;;;;;4965747;28;19921;-81
2021/04/07 03:20:50;;;;;;;;;;;1.00;99.90;;;;;;4966341;28;19910;-81
2021/04/07 03:23:15;;;;;;;;;;;1.00;99.90;;;;;;4968331;28;19957;-81
2021/04/07 03:25:44;;;;;;;;;;;1.00;99.90;;;;;;4973869;28;20377;-82
2021/04/07 03:28:09;;;;;;;;;;;1.00;99.90;;;;;;4986298;28;19965;-82
2021/04/07 03:30:51;;;;;;;;;;;1.00;99.90;;;;;;4969228;28;19911;-82
2021/04/07 03:33:21;;;;;;;;;;;1.00;99.90;;;;;;4972991;28;19914;-83
2021/04/07 03:35:52;;;;;;;;;;;1.00;99.90;;;;;;4975077;28;19929;-82
2021/04/07 03:38:18;;;;;;;;;;;1.00;99.90;;;;;;4954554;28;19957;-82
2021/04/07 03:41:00;;;;;;;;;;;1.00;99.90;;;;;;4967178;28;19946;-82
2021/04/07 03:46:26;;;;;;;;;;;1.00;99.90;;;;;;4974806;28;19910;-83
2021/04/07 03:48:52;;;;;;;;;;;1.00;99.90;;;;;;4962843;28;19962;-82
2021/04/07 03:51:25;;;;;;;;;;;1.00;99.90;;;;;;4970347;28;19979;-81
2021/04/07 03:53:50;;;;;;;;;;;1.00;99.90;;;;;;4961500;28;19918;-82
2021/04/07 03:56:16;;;;;;;;;;;1.00;99.90;;;;;;4962406;28;19915;-81
2021/04/07 04:01:33;;;;;;;;;;;1.00;99.90;;;;;;4961631;28;19954;-82
2021/04/07 04:04:18;;;;;;;;;;;1.00;99.90;;;;;;4961916;28;19915;-82
2021/04/07 04:06:52;;;;;;;;;;;1.00;99.90;;;;;;4960548;28;19911;-81
2021/04/07 04:09:35;;;;;;;;;;;1.00;99.90;;;;;;4950003;29;20479;-82
2021/04/07 04:12:39;;;;;;;;;;;;;;;;;;;;;
2021/04/07 04:15:16;;;;;;;;;;;;;;;;;;;;;
2021/04/07 04:18:04;;;;;;;;;;;1.10;99.90;;;;;;4958990;28;20017;-82
2021/04/07 04:20:30;;;;;;;;;;;1.10;99.90;;;;;;4960823;28;19938;-81
2021/04/07 04:23:16;;;;;;;;;;;1.10;99.90;;;;;;4979149;28;19917;-81
2021/04/07 04:26:05;;;;;;;;;;;1.10;99.90;;;;;;4971539;28;19917;-82
2021/04/07 04:28:30;;;;;;;;;;;1.10;99.90;;;;;;4969009;28;19977;-81
2021/04/07 04:30:55;;;;;;;;;;;1.10;99.90;;;;;;4976804;28;19952;-82
2021/04/07 04:33:33;;;;;;;;;;;;;;;;;;;;;
2021/04/07 04:36:26;;;;;;;;;;;1.10;99.90;;;;;;4965247;28;19929;-82
2021/04/07 04:38:59;;;;;;;;;;;1.20;99.90;;;;;;4963091;28;19954;-81
2021/04/07 04:41:47;;;;;;;;;;;1.20;99.90;;;;;;4962714;28;19910;-82
2021/04/07 04:44:49;;;;;;;;;;;1.20;99.90;;;;;;4963465;28;19911;-81
2021/04/07 04:47:15;;;;;;;;;;;1.20;99.90;;;;;;4964277;28;19918;-83
2021/04/07 04:49:40;;;;;;;;;;;1.20;99.90;;;;;;4964548;28;19914;-82
2021/04/07 04:52:06;;;;;;;;;;;1.20;99.90;;;;;;4964673;28;19917;-82
2021/04/07 04:54:33;;;;;;;;;;;1.20;99.90;;;;;;4972865;28;20370;-82
2021/04/07 04:56:59;;;;;;;;;;;1.30;99.90;;;;;;4977988;28;19982;-83
2021/04/07 04:59:47;;;;;;;;;;;1.20;99.90;;;;;;4986812;28;19914;-83
2021/04/07 05:02:17;;;;;;;;;;;1.30;99.90;;;;;;4958413;28;19926;-83
2021/04/07 05:05:24;;;;;;;;;;;1.30;99.90;;;;;;4969886;28;19911;-83
2021/04/07 05:07:51;;;;;;;;;;;1.30;99.90;;;;;;4982005;28;19915;-83
2021/04/07 05:10:25;;;;;;;;;;;1.30;99.90;;;;;;4985007;28;19934;-84
2021/04/07 05:12:53;;;;;;;;;;;1.30;99.90;;;;;;4978041;28;19966;-83
2021/04/07 05:15:22;;;;;;;;;;;1.40;99.90;;;;;;4979344;28;19945;-82
2021/04/07 05:17:56;;;;;;;;;;;1.40;99.90;;;;;;4975949;28;19918;-84
2021/04/07 05:20:34;;;;;;;;;;;;;;;;;;;;;
2021/04/07 05:22:59;;;;;;;;;;;1.40;99.90;;;;;;4971104;28;19961;-83
2021/04/07 05:28:11;;;;;;;;;;;1.40;99.90;;;;;;4969013;28;20283;-82
2021/04/07 05:33:29;;;;;;;;;;;1.50;99.90;;;;;;4978375;28;19992;-84
2021/04/07 05:35:58;;;;;;;;;;;1.40;99.90;;;;;;4991862;28;19914;-83
2021/04/07 05:38:44;;;;;;;;;;;1.40;99.90;;;;;;4975439;28;19911;-85
2021/04/07 05:41:09;;;;;;;;;;;1.50;99.90;;;;;;4977203;28;20527;-82
2021/04/07 05:43:43;;;;;;;;;;;1.50;99.90;;;;;;4973650;28;19915;-82
2021/04/07 05:46:09;;;;;;;;;;;1.60;99.90;;;;;;4961635;28;19914;-81
2021/04/07 05:48:35;;;;;;;;;;;1.70;99.90;;;;;;4963470;28;19915;-83
2021/04/07 05:51:00;;;;;;;;;;;1.70;99.90;;;;;;4956794;28;19922;-82
2021/04/07 05:53:26;;;;;;;;;;;1.80;99.90;;;;;;4961408;28;19915;-82
2021/04/07 05:55:53;;;;;;;;;;;1.80;99.90;;;;;;4958566;28;20371;-82
2021/04/07 05:58:18;;;;;;;;;;;1.80;99.90;;;;;;4961075;28;19918;-81
2021/04/07 06:00:44;;;;;;;;;;;1.80;99.90;;;;;;4961252;28;19925;-82
2021/04/07 06:03:10;;;;;;;;;;;1.80;99.90;;;;;;4964797;28;20009;-82
2021/04/07 06:05:36;;;;;;;;;;;1.70;99.90;;;;;;4960396;28;20433;-83
2021/04/07 06:08:02;;;;;;;;;;;1.70;99.90;;;;;;4961902;28;19915;-83
2021/04/07 06:10:28;;;;;;;;;;;1.70;99.90;;;;;;4960909;28;20163;-83
2021/04/07 06:12:53;;;;;;;;;;;1.70;99.90;;;;;;4944751;28;20333;-83
2021/04/07 06:15:19;;;;;;;;;;;1.70;99.90;;;;;;4962490;28;19919;-81
2021/04/07 06:17:55;;;;;;;;;;;1.70;99.90;;;;;;4953898;28;19950;-83
2021/04/07 06:20:22;;;;;;;;;;;1.80;99.90;;;;;;4952686;28;19911;-83
2021/04/07 06:22:47;;;;;;;;;;;1.80;99.90;;;;;;4961061;28;19945;-81
2021/04/07 06:25:13;;;;;;;;;;;1.80;99.90;;;;;;4965062;28;19911;-80
2021/04/07 06:27:39;;;;;;;;;;;1.90;99.90;;;;;;4958703;28;20379;-81
2021/04/07 06:30:05;;;;;;;;;;;1.90;99.90;;;;;;4960642;28;19914;-82
2021/04/07 06:32:31;;;;;;;;;;;1.90;99.90;;;;;;4964341;28;19914;-81
2021/04/07 06:34:57;;;;;;;;;;;2.00;99.90;;;;;;4978441;28;19910;-82
2021/04/07 06:37:22;;;;;;;;;;;2.10;99.90;;;;;;4968691;28;19914;-81
2021/04/07 06:39:48;;;;;;;;;;;2.20;99.90;;;;;;4972564;28;19932;-80
2021/04/07 06:42:16;;;;;;;;;;;2.30;99.90;;;;;;4958493;29;19910;-80
2021/04/07 06:44:42;;;;;;;;;;;2.50;99.90;;;;;;4958503;28;20385;-80
2021/04/07 06:47:08;;;;;;;;;;;2.60;99.90;;;;;;4959681;28;19918;-80
2021/04/07 06:49:33;;;;;;;;;;;2.60;99.90;;;;;;4956354;29;20001;-81
2021/04/07 06:52:01;;;;;;;;;;;2.60;99.90;;;;;;4957064;28;19911;-81
2021/04/07 06:54:27;;;;;;;;;;;2.70;99.90;;;;;;4939283;29;19915;-81
2021/04/07 06:56:55;;;;;;;;;;;2.90;99.90;;;;;;4963104;28;19922;-79
2021/04/07 06:59:21;;;;;;;;;;;3.00;99.90;;;;;;4972144;28;19915;-78
2021/04/07 07:01:46;;;;;;;;;;;3.10;99.90;;;;;;4957794;28;20009;-79
2021/04/07 07:04:12;;;;;;;;;;;3.00;99.90;;;;;;4957580;28;20297;-79
2021/04/07 07:06:37;;;;;;;;;;;2.90;99.90;;;;;;4956771;28;19915;-79
2021/04/07 07:09:13;;;;;;;;;;;2.80;99.90;;;;;;4954943;28;19914;-79
2021/04/07 07:11:39;;;;;;;;;;;2.70;99.90;;;;;;4957070;28;19918;-78
2021/04/07 07:14:04;;;;;;;;;;;2.50;99.90;;;;;;4974226;28;19910;-78
2021/04/07 07:16:30;;;;;;;;;;;2.30;99.90;;;;;;4957472;28;19970;-79
2021/04/07 07:18:55;;;;;;;;;;;2.20;99.90;;;;;;4962033;28;19982;-80
2021/04/07 07:21:21;;;;;;;;;;;2.20;99.90;;;;;;4955001;28;19910;-80
2021/04/07 07:23:47;;;;;;;;;;;2.40;99.90;;;;;;4971567;28;20293;-80
2021/04/07 07:26:13;;;;;;;;;;;2.60;99.90;;;;;;4955613;28;19910;-80
2021/04/07 07:28:43;;;;;;;;;;;2.70;99.90;;;;;;4980951;28;19918;-80
2021/04/07 07:31:16;;;;;;;;;;;2.80;99.90;;;;;;4961561;28;19915;-81
2021/04/07 07:33:48;;;;;;;;;;;2.90;99.90;;;;;;4966302;28;19911;-80
2021/04/07 07:36:14;;;;;;;;;;;3.00;99.90;;;;;;4965423;28;19968;-79
2021/04/07 07:38:44;;;;;;;;;;;3.10;99.90;;;;;;4969242;28;19910;-81
2021/04/07 07:41:09;;;;;;;;;;;3.20;99.90;;;;;;4965034;28;20005;-81
2021/04/07 07:43:35;;;;;;;;;;;3.20;99.90;;;;;;4971748;28;19953;-79
2021/04/07 07:46:31;;;;;;;;;;;3.30;99.90;;;;;;4955698;29;19970;-78
2021/04/07 07:48:58;;;;;;;;;;;3.20;99.90;;;;;;4950254;28;19921;-78
2021/04/07 07:51:24;;;;;;;;;;;3.20;99.90;;;;;;4960687;28;20401;-78
2021/04/07 07:53:51;;;;;;;;;;;3.30;99.90;;;;;;4967366;28;20000;-80
2021/04/07 07:56:17;;;;;;;;;;;3.30;99.90;;;;;;4962866;28;19915;-80
2021/04/07 07:58:43;;;;;;;;;;;3.40;99.90;;;;;;4958492;28;19910;-81
2021/04/07 08:01:14;;;;;;;;;;;3.50;99.90;;;;;;4953160;28;19918;-80
2021/04/07 08:03:39;;;;;;;;;;;3.70;99.90;;;;;;4960385;28;19957;-81
2021/04/07 08:06:11;;;;;;;;;;;3.80;99.90;;;;;;4959070;28;19918;-79
2021/04/07 08:08:36;;;;;;;;;;;3.90;99.90;;;;;;4960968;28;19921;-79
2021/04/07 08:11:02;;;;;;;;;;;4.00;99.90;;;;;;4968726;28;19919;-80
2021/04/07 08:13:29;;;;;;;;;;;3.90;99.90;;;;;;4963390;28;19915;-80
2021/04/07 08:15:56;;;;;;;;;;;3.70;99.90;;;;;;4959468;28;20291;-79
2021/04/07 08:18:23;;;;;;;;;;;3.50;99.90;;;;;;4945048;28;19915;-80
2021/04/07 08:20:48;;;;;;;;;;;3.50;99.90;;;;;;4957513;28;19946;-79
2021/04/07 08:23:17;;;;;;;;;;;3.80;99.90;;;;;;4959886;29;19922;-80
2021/04/07 08:25:43;;;;;;;;;;;4.00;99.90;;;;;;4958925;28;19937;-80
2021/04/07 08:28:09;;;;;;;;;;;3.90;99.90;;;;;;4960908;28;19922;-80
2021/04/07 08:30:34;;;;;;;;;;;3.80;99.90;;;;;;4960107;28;19915;-78
2021/04/07 08:33:00;;;;;;;;;;;3.80;99.90;;;;;;4961554;28;19958;-79
2021/04/07 08:35:26;;;;;;;;;;;3.90;99.90;;;;;;4961463;28;20277;-79
2021/04/07 08:38:04;;;;;;;;;;;3.90;99.90;;;;;;4960296;28;19919;-81
2021/04/07 08:40:35;;;;;;;;;;;3.90;99.90;;;;;;4957847;28;20031;-80
2021/04/07 08:43:01;;;;;;;;;;;4.10;99.90;;;;;;4967566;28;19914;-81
2021/04/07 08:45:38;;;;;;;;;;;4.40;99.90;;;;;;4956151;28;19915;-80
2021/04/07 08:48:32;;;;;;;;;;;4.60;99.90;;;;;;4956047;28;19915;-81
2021/04/07 08:51:03;;;;;;;;;;;4.60;99.90;;;;;;4957043;29;19918;-79
2021/04/07 08:53:30;;;;;;;;;;;4.40;99.90;;;;;;4957135;28;20306;-78
2021/04/07 08:55:56;;;;;;;;;;;4.40;99.90;;;;;;4957954;28;19925;-80
2021/04/07 08:58:22;;;;;;;;;;;4.70;99.90;;;;;;4961155;28;19915;-80
2021/04/07 09:00:50;;;;;;;;;;;4.60;99.90;;;;;;4958136;28;19958;-79
2021/04/07 09:03:16;;;;;;;;;;;4.40;99.90;;;;;;4974544;28;19921;-79
2021/04/07 09:05:42;;;;;;;;;;;4.20;99.90;;;;;;4959940;28;19915;-80
2021/04/07 09:08:10;;;;;;;;;;;4.10;99.90;;;;;;4969162;28;20282;-79
2021/04/07 09:10:48;;;;;;;;;;;4.10;99.90;;;;;;4964733;28;19914;-79
2021/04/07 09:13:21;;;;;;;;;;;4.30;99.90;;;;;;4966123;28;20005;-80
2021/04/07 09:15:46;;;;;;;;;;;4.40;99.90;;;;;;4964649;28;19925;-79
2021/04/07 09:18:12;;;;;;;;;;;4.40;99.90;;;;;;4978752;28;19914;-78
2021/04/07 09:20:47;;;;;;;;;;;4.40;99.90;;;;;;4966229;28;20281;-79
2021/04/07 09:23:14;;;;;;;;;;;4.50;99.90;;;;;;4962653;28;20430;-80
2021/04/07 09:25:44;;;;;;;;;;;4.50;99.90;;;;;;4966734;28;20005;-80
2021/04/07 09:28:09;;;;;;;;;;;4.50;99.90;;;;;;4959671;28;19914;-79
2021/04/07 09:30:46;;;;;;;;;;;4.50;99.90;;;;;;4973299;28;19921;-81
2021/04/07 09:33:16;;;;;;;;;;;4.40;99.90;;;;;;4957376;28;20472;-80
2021/04/07 09:36:00;;;;;;;;;;;4.20;99.90;;;;;;4958611;28;19926;-80
2021/04/07 09:38:30;;;;;;;;;;;4.20;99.90;;;;;;4959019;28;19997;-81
2021/04/07 09:41:07;;;;;;;;;;;4.20;99.90;;;;;;4958031;28;19915;-80
2021/04/07 09:43:32;;;;;;;;;;;4.40;99.90;;;;;;4956072;28;19914;-80
2021/04/07 09:45:58;;;;;;;;;;;4.40;99.90;;;;;;4957162;29;20021;-80
2021/04/07 09:48:33;;;;;;;;;;;4.30;99.90;;;;;;4957985;28;19915;-79
2021/04/07 09:50:59;;;;;;;;;;;4.30;99.90;;;;;;4957667;28;19973;-79
2021/04/07 09:53:28;;;;;;;;;;;4.20;99.90;;;;;;4958095;28;19914;-81
2021/04/07 09:56:02;;;;;;;;;;;4.00;99.90;;;;;;4956293;28;20161;-80
2021/04/07 09:58:28;;;;;;;;;;;4.10;99.90;;;;;;4950675;28;19922;-81
2021/04/07 10:01:04;;;;;;;;;;;4.20;99.90;;;;;;4996802;23;19936;-80
2021/04/07 10:03:29;;;;;;;;;;;4.40;99.90;;;;;;5017635;28;19972;-80
2021/04/07 10:05:55;;;;;;;;;;;4.60;99.90;;;;;;5025284;28;20424;-79
2021/04/07 10:08:33;;;;;;;;;;;4.80;99.90;;;;;;5022148;28;19914;-82
2021/04/07 10:14:19;;;;;;;;;;;5.50;99.90;;;;;;5002659;28;19967;-81
2021/04/07 10:16:44;;;;;;;;;;;5.60;99.90;;;;;;5002367;28;19957;-79
2021/04/07 10:19:11;;;;;;;;;;;5.70;99.90;;;;;;5004811;28;20392;-81
2021/04/07 10:21:37;;;;;;;;;;;5.70;99.90;;;;;;5013882;28;19924;-82
2021/04/07 10:24:04;;;;;;;;;;;5.80;99.90;;;;;;5012860;28;19913;-80
2021/04/07 10:26:29;;;;;;;;;;;6.00;99.90;;;;;;4996441;28;19955;-80
2021/04/07 10:29:06;;;;;;;;;;;6.40;99.90;;;;;;5013640;28;20373;-79
2021/04/07 10:31:31;;;;;;;;;;;6.90;99.90;;;;;;5003939;28;19910;-82
2021/04/07 10:34:02;;;;;;;;;;;7.30;99.90;;;;;;5014533;28;19925;-81
2021/04/07 10:36:28;;;;;;;;;;;7.30;99.90;;;;;;5026947;28;19917;-80
2021/04/07 10:38:54;;;;;;;;;;;7.30;99.90;;;;;;5014582;28;20019;-80
2021/04/07 10:41:23;;;;;;;;;;;7.30;99.90;;;;;;5020585;28;19977;-81
2021/04/07 10:43:49;;;;;;;;;;;7.20;99.90;;;;;;5015861;28;19920;-80
2021/04/07 10:46:14;;;;;;;;;;;7.20;99.90;;;;;;5015414;28;20300;-82
2021/04/07 10:48:40;;;;;;;;;;;7.50;99.90;;;;;;5013886;28;19914;-80
2021/04/07 10:51:06;;;;;;;;;;;8.10;99.90;;;;;;5015287;28;19937;-81
2021/04/07 10:53:43;;;;;;;;;;;8.80;99.90;;;;;;5015206;28;19914;-81
2021/04/07 10:56:19;;;;;;;;;;;9.20;99.90;;;;;;5013969;28;19917;-86
2021/04/07 10:58:51;;;;;;;;;;;9.00;99.90;;;;;;5012499;28;19940;-82
2021/04/07 11:01:25;;;;;;;;;;;9.20;99.90;;;;;;5013774;28;19917;-80
2021/04/07 11:03:50;;;;;;;;;;;9.60;99.90;;;;;;5013412;28;19953;-81
2021/04/07 11:06:19;;;;;;;;;;;10.10;99.90;;;;;;5013449;28;19914;-80
2021/04/07 11:08:46;;;;;;;;;;;10.40;99.90;;;;;;5001111;28;19936;-82
2021/04/07 11:11:18;;;;;;;;;;;10.30;99.90;;;;;;5013516;28;20068;-80
2021/04/07 11:13:45;;;;;;;;;;;9.80;99.90;;;;;;5014166;28;19917;-80
2021/04/07 11:16:11;;;;;;;;;;;9.40;99.90;;;;;;5014813;28;20012;-81
2021/04/07 11:18:40;;;;;;;;;;;9.30;99.90;;;;;;5003081;28;20341;-80
2021/04/07 11:21:09;;;;;;;;;;;9.00;99.90;;;;;;5012604;28;19941;-80
2021/04/07 11:23:37;;;;;;;;;;;8.70;99.90;;;;;;5013157;28;19914;-81
2021/04/07 11:26:06;;;;;;;;;;;8.20;99.90;;;;;;5018363;28;19914;-80
2021/04/07 11:28:32;;;;;;;;;;;8.10;99.90;;;;;;5033146;28;20366;-82
2021/04/07 11:31:04;;;;;;;;;;;8.90;99.90;;;;;;5017871;28;19917;-80
2021/04/07 11:33:43;;;;;;;;;;;9.60;99.90;;;;;;5019260;28;19914;-81
2021/04/07 11:39:00;;;;;;;;;;;12.10;99.90;;;;;;5018208;28;19944;-83
2021/04/07 11:46:36;;;;;;;;;;;11.50;99.90;;;;;;5007003;28;19913;-79
2021/04/07 11:49:02;;;;;;;;;;;10.80;99.90;;;;;;5007656;28;19910;-80
2021/04/07 11:51:28;;;;;;;;;;;10.30;99.90;;;;;;5009044;28;19936;-79
2021/04/07 11:53:53;;;;;;;;;;;10.30;99.90;;;;;;5011743;28;19918;-80
2021/04/07 11:56:22;;;;;;;;;;;10.10;99.90;;;;;;5007142;28;19971;-79
2021/04/07 11:58:47;;;;;;;;;;;10.00;99.90;;;;;;5036862;28;20025;-80
2021/04/07 12:01:13;;;;;;;;;;;9.90;99.90;;;;;;5019799;28;19921;-80
2021/04/07 12:03:39;;;;;;;;;;;9.80;99.90;;;;;;5018299;28;20404;-79
2021/04/07 12:06:04;;;;;;;;;;;9.90;99.90;;;;;;5021625;28;20337;-80
2021/04/07 12:08:30;;;;;;;;;;;9.60;99.90;;;;;;5016669;28;19933;-80
2021/04/07 12:11:01;;;;;;;;;;;9.20;99.90;;;;;;5016503;28;19913;-80
2021/04/07 12:13:27;;;;;;;;;;;8.80;99.90;;;;;;5005585;28;20392;-81
2021/04/07 12:15:53;;;;;;;;;;;8.40;99.90;;;;;;5022851;28;19924;-80
2021/04/07 12:18:18;;;;;;;;;;;7.90;99.90;;;;;;5017725;28;20389;-80
2021/04/07 12:20:44;;;;;;;;;;;7.50;99.90;;;;;;5017171;28;19913;-80
2021/04/07 12:23:09;;;;;;;;;;;7.10;99.90;;;;;;5016215;28;19909;-81
2021/04/07 12:25:35;;;;;;;;;;;6.70;99.90;;;;;;5017848;28;20316;-80
2021/04/07 12:28:03;;;;;;;;;;;6.50;99.90;;;;;;5018843;28;19917;-80
2021/04/07 12:30:29;;;;;;;;;;;6.40;99.90;;;;;;5015481;28;20273;-80
2021/04/07 12:32:56;;;;;;;;;;;6.60;99.90;;;;;;5016053;28;19920;-81
2021/04/07 12:35:50;;;;;;;;;;;6.90;99.90;;;;;;5016384;28;19996;-81
2021/04/07 12:38:16;;;;;;;;;;;6.90;99.90;;;;;;5007198;28;20269;-81
2021/04/07 12:40:44;;;;;;;;;;;7.10;99.90;;;;;;5016121;28;19913;-80
2021/04/07 12:43:10;;;;;;;;;;;7.30;99.90;;;;;;5018083;28;19913;-81
2021/04/07 12:45:35;;;;;;;;;;;7.30;99.90;;;;;;5014916;28;19920;-82
2021/04/07 12:48:01;;;;;;;;;;;7.30;99.90;;;;;;5017107;28;19913;-81
2021/04/07 12:50:26;;;;;;;;;;;7.20;99.90;;;;;;5018571;28;19937;-81
2021/04/07 12:52:54;;;;;;;;;;;7.10;99.90;;;;;;5014989;28;19960;-81
2021/04/07 12:55:19;;;;;;;;;;;7.40;99.90;;;;;;5017148;28;20008;-81
2021/04/07 12:57:45;;;;;;;;;;;7.80;99.90;;;;;;5017477;28;19949;-81
2021/04/07 13:00:11;;;;;;;;;;;8.20;99.90;;;;;;5013604;28;20016;-82
2021/04/07 13:02:36;;;;;;;;;;;8.60;99.90;;;;;;5015026;28;19914;-82
2021/04/07 13:05:02;;;;;;;;;;;8.80;99.90;;;;;;5015992;28;19920;-84
2021/04/07 13:07:27;;;;;;;;;;;8.80;99.90;;;;;;5016526;28;19914;-83
2021/04/07 13:09:53;;;;;;;;;;;8.40;99.90;;;;;;5016967;28;19917;-83
2021/04/07 13:12:18;;;;;;;;;;;8.00;99.90;;;;;;5033900;28;19937;-82
2021/04/07 13:14:44;;;;;;;;;;;7.60;99.90;;;;;;5029800;28;19921;-83
2021/04/07 13:17:10;;;;;;;;;;;7.30;99.90;;;;;;5017541;28;19984;-81
2021/04/07 13:19:36;;;;;;;;;;;7.10;99.90;;;;;;5014858;28;19913;-83
2021/04/07 13:22:02;;;;;;;;;;;6.90;99.90;;;;;;5030972;28;20016;-84
2021/04/07 13:24:27;;;;;;;;;;;6.70;99.90;;;;;;5014242;28;19913;-84
2021/04/07 13:26:54;;;;;;;;;;;6.80;99.90;;;;;;5031631;28;19941;-84
2021/04/07 13:29:20;;;;;;;;;;;6.80;99.90;;;;;;5015115;28;19914;-84
2021/04/07 13:31:45;;;;;;;;;;;6.50;99.90;;;;;;5016833;28;20036;-84
2021/04/07 13:34:16;;;;;;;;;;;6.30;99.90;;;;;;5014397;28;19917;-83
2021/04/07 13:36:53;;;;;;;;;;;6.20;99.90;;;;;;5014977;28;19925;-84
2021/04/07 13:39:26;;;;;;;;;;;6.20;99.90;;;;;;5031615;28;20040;-84
2021/04/07 13:44:50;;;;;;;;;;;6.60;99.90;;;;;;5000313;28;19929;-83
2021/04/07 13:47:17;;;;;;;;;;;6.80;99.90;;;;;;5015964;28;19913;-83
2021/04/07 13:49:43;;;;;;;;;;;6.90;99.90;;;;;;5010663;28;19914;-83
2021/04/07 13:52:08;;;;;;;;;;;6.80;99.90;;;;;;5013435;28;19921;-83
2021/04/07 13:54:34;;;;;;;;;;;6.90;99.90;;;;;;5015459;28;19918;-82
2021/04/07 13:57:18;;;;;;;;;;;7.30;99.90;;;;;;5013223;28;19926;-82
2021/04/07 13:59:44;;;;;;;;;;;7.80;99.90;;;;;;5013695;28;19917;-83
2021/04/07 14:02:10;;;;;;;;;;;8.30;99.90;;;;;;5015003;28;19917;-84
2021/04/07 14:04:35;;;;;;;;;;;8.30;99.90;;;;;;5012411;28;20364;-83
2021/04/07 14:07:01;;;;;;;;;;;8.10;99.90;;;;;;5014080;28;19909;-83
2021/04/07 14:09:26;;;;;;;;;;;7.60;99.90;;;;;;5013311;28;19964;-85
2021/04/07 14:11:52;;;;;;;;;;;7.20;99.90;;;;;;5014936;28;19910;-83
2021/04/07 14:14:17;;;;;;;;;;;6.90;99.90;;;;;;5014454;28;20300;-80
2021/04/07 14:16:43;;;;;;;;;;;6.80;99.90;;;;;;5030780;28;19928;-83
2021/04/07 14:19:08;;;;;;;;;;;6.70;99.90;;;;;;5015561;28;20007;-84
2021/04/07 14:21:34;;;;;;;;;;;6.50;99.90;;;;;;5013998;28;19917;-84
2021/04/07 14:23:59;;;;;;;;;;;6.30;99.90;;;;;;5032864;28;19913;-82
2021/04/07 14:26:24;;;;;;;;;;;6.20;99.90;;;;;;5009886;28;19913;-81
2021/04/07 14:28:50;;;;;;;;;;;6.20;99.90;;;;;;5019239;28;19956;-83
2021/04/07 14:31:15;;;;;;;;;;;6.40;99.90;;;;;;5017895;28;19971;-82
2021/04/07 14:33:41;;;;;;;;;;;6.70;99.90;;;;;;5018615;28;19913;-83
2021/04/07 14:36:06;;;;;;;;;;;6.80;99.90;;;;;;5024552;28;19918;-82
2021/04/07 14:38:32;;;;;;;;;;;6.70;99.90;;;;;;5019610;28;19961;-83
2021/04/07 14:40:57;;;;;;;;;;;6.60;99.90;;;;;;5017367;28;20270;-83
2021/04/07 14:43:23;;;;;;;;;;;6.60;99.90;;;;;;5018385;28;20007;-84
2021/04/07 14:45:48;;;;;;;;;;;6.90;99.90;;;;;;5016369;28;19944;-82
2021/04/07 14:48:14;;;;;;;;;;;7.50;99.90;;;;;;5015892;28;20004;-83
2021/04/07 14:50:44;;;;;;;;;;;8.00;99.90;;;;;;5015735;28;19918;-83
2021/04/07 14:53:14;;;;;;;;;;;8.40;99.90;;;;;;5010178;28;19914;-80
2021/04/07 14:55:40;;;;;;;;;;;8.80;99.90;;;;;;5010989;28;19918;-83
2021/04/07 14:58:05;;;;;;;;;;;9.00;99.90;;;;;;5015685;28;19913;-83
2021/04/07 15:00:31;;;;;;;;;;;9.20;99.90;;;;;;5016102;28;19925;-84
2021/04/07 15:02:56;;;;;;;;;;;9.20;99.90;;;;;;5014793;28;19913;-83
2021/04/07 15:05:23;;;;;;;;;;;9.20;99.90;;;;;;5016630;28;19961;-83
2021/04/07 15:07:49;;;;;;;;;;;9.20;99.90;;;;;;5031309;28;19956;-83
2021/04/07 15:10:16;;;;;;;;;;;9.30;99.90;;;;;;5016570;28;19914;-83
2021/04/07 15:12:41;;;;;;;;;;;9.10;99.90;;;;;;5016325;28;19909;-82
2021/04/07 15:15:07;;;;;;;;;;;8.70;99.90;;;;;;5015968;28;19920;-83
2021/04/07 15:17:33;;;;;;;;;;;8.20;99.90;;;;;;5016876;28;19924;-83
2021/04/07 15:19:59;;;;;;;;;;;7.70;99.90;;;;;;5014745;28;19913;-83
2021/04/07 15:22:24;;;;;;;;;;;7.40;99.90;;;;;;5017055;28;19916;-83
2021/04/07 15:24:50;;;;;;;;;;;7.30;99.90;;;;;;5012651;28;19913;-83
2021/04/07 15:27:26;;;;;;;;;;;7.30;99.90;;;;;;5015288;28;19914;-83
2021/04/07 15:29:52;;;;;;;;;;;7.30;99.90;;;;;;5030318;28;19953;-83
2021/04/07 15:32:17;;;;;;;;;;;7.30;99.90;;;;;;5014470;28;19983;-83
2021/04/07 15:34:43;;;;;;;;;;;7.30;99.90;;;;;;5014380;28;19921;-82